createdAt,value
2024-02-03T00:00:58.036Z,22.84
2024-02-03T00:03:44.745Z,23.86
2024-02-03T00:06:37.086Z,22.66
2024-02-03T00:09:22.365Z,23.13
2024-02-03T00:12:16.965Z,23.14
2024-02-03T00:15:05.618Z,24.15
2024-02-03T00:17:51.432Z,23.51
2024-02-03T00:20:36.865Z,24.43
2024-02-03T00:23:22.651Z,23.90
2024-02-03T00:26:07.575Z,23.25
2024-02-03T00:30:01.638Z,24.19
2024-02-03T00:32:08.466Z,23.68
2024-02-03T00:34:53.956Z,24.27
2024-02-03T00:37:39.433Z,24.07
2024-02-03T00:40:24.248Z,24.18
2024-02-03T00:43:09.222Z,24.11
2024-02-03T00:45:54.237Z,24.04
2024-02-03T00:48:40.601Z,23.25
2024-02-03T00:51:25.991Z,23.51
2024-02-03T00:54:11.385Z,22.61
2024-02-03T00:56:57.741Z,23.72
2024-02-03T00:59:42.873Z,29.75
2024-02-03T01:02:27.978Z,27.03
2024-02-03T01:05:13.341Z,26.99
2024-02-03T01:07:58.543Z,26.43
2024-02-03T01:10:44.140Z,26.22
2024-02-03T01:13:29.079Z,25.57
2024-02-03T01:16:14.752Z,24.01
2024-02-03T01:18:59.697Z,23.97
2024-02-03T01:21:45.012Z,23.98
2024-02-03T01:24:30.691Z,23.48
2024-02-03T01:27:16.020Z,24.24
2024-02-03T01:30:01.449Z,24.22
2024-02-03T01:32:46.542Z,24.78
2024-02-03T01:35:31.429Z,24.90
2024-02-03T01:38:18.803Z,24.59
2024-02-03T01:41:04.005Z,24.63
2024-02-03T01:43:49.084Z,24.14
2024-02-03T01:46:34.125Z,23.92
2024-02-03T01:49:19.648Z,24.55
2024-02-03T01:52:05.070Z,23.33
2024-02-03T01:54:50.169Z,23.46
2024-02-03T01:57:35.481Z,23.91
2024-02-03T02:03:30.280Z,23.08
2024-02-03T02:06:15.806Z,23.07
2024-02-03T02:09:01.106Z,22.95
2024-02-03T02:11:46.382Z,23.25
2024-02-03T02:14:31.533Z,23.58
2024-02-03T02:17:16.403Z,22.90
2024-02-03T02:20:01.438Z,22.86
2024-02-03T02:22:46.686Z,22.24
2024-02-03T02:25:31.618Z,22.84
2024-02-03T02:28:16.785Z,22.11
2024-02-03T02:31:01.719Z,22.38
2024-02-03T02:33:47.149Z,21.12
2024-02-03T02:36:32.066Z,22.44
2024-02-03T02:39:19.972Z,24.65
2024-02-03T02:42:05.442Z,23.91
2024-02-03T02:44:50.360Z,22.58
2024-02-03T02:47:35.329Z,22.16
2024-02-03T02:50:20.629Z,22.05
2024-02-03T02:53:05.592Z,21.29
2024-02-03T02:55:50.864Z,21.00
2024-02-03T02:58:35.731Z,21.41
2024-02-03T03:01:21.082Z,21.49
2024-02-03T03:04:06.278Z,21.59
2024-02-03T03:06:51.699Z,20.93
2024-02-03T03:09:36.819Z,20.33
2024-02-03T03:12:21.954Z,21.30
2024-02-03T03:15:07.008Z,21.72
2024-02-03T03:17:52.467Z,22.18
2024-02-03T03:20:40.909Z,21.74
2024-02-03T03:23:25.962Z,20.60
2024-02-03T03:26:11.051Z,20.18
2024-02-03T03:28:56.140Z,21.97
2024-02-03T03:31:41.360Z,20.82
2024-02-03T03:34:26.681Z,20.46
2024-02-03T03:37:11.823Z,19.00
2024-02-03T03:39:56.874Z,19.89
2024-02-03T03:42:42.283Z,19.01
2024-02-03T03:45:27.803Z,19.36
2024-02-03T03:48:13.805Z,18.88
2024-02-03T03:50:59.297Z,18.74
2024-02-03T03:53:44.374Z,19.24
2024-02-03T03:56:29.771Z,18.21
2024-02-03T03:59:14.759Z,16.93
2024-02-03T04:02:02.679Z,16.17
2024-02-03T04:04:48.095Z,16.33
2024-02-03T04:07:36.255Z,15.83
2024-02-03T04:10:21.868Z,16.34
2024-02-03T04:13:07.006Z,15.12
2024-02-03T04:15:52.467Z,15.33
2024-02-03T04:18:38.118Z,15.73
2024-02-03T04:21:23.597Z,15.56
2024-02-03T04:24:08.711Z,16.32
2024-02-03T04:26:53.617Z,17.06
2024-02-03T04:29:44.335Z,17.27
2024-02-03T04:32:31.262Z,19.45
2024-02-03T04:35:16.193Z,20.81
2024-02-03T04:38:01.454Z,21.91
2024-02-03T04:40:47.408Z,21.74
2024-02-03T04:43:32.745Z,20.55
2024-02-03T04:46:18.223Z,22.27
2024-02-03T04:49:04.000Z,20.84
2024-02-03T04:51:49.792Z,21.36
2024-02-03T04:54:35.171Z,21.19
2024-02-03T04:57:20.702Z,21.81
2024-02-03T05:00:05.622Z,23.41
2024-02-03T05:02:50.934Z,22.30
2024-02-03T05:05:35.957Z,21.60
2024-02-03T05:08:20.900Z,21.31
2024-02-03T05:11:06.139Z,22.17
2024-02-03T05:13:51.447Z,22.09
2024-02-03T05:16:36.649Z,22.32
2024-02-03T05:19:21.774Z,21.36
2024-02-03T05:22:07.274Z,21.93
2024-02-03T05:24:52.533Z,22.21
2024-02-03T05:27:37.945Z,21.29
2024-02-03T05:30:23.025Z,22.35
2024-02-03T05:33:08.128Z,22.70
2024-02-03T05:35:53.256Z,21.93
2024-02-03T05:38:38.418Z,21.44
2024-02-03T05:41:26.254Z,20.16
2024-02-03T05:44:11.415Z,20.47
2024-02-03T05:46:56.633Z,20.31
2024-02-03T05:49:41.979Z,20.23
2024-02-03T05:52:27.542Z,20.56
2024-02-03T05:55:12.846Z,20.64
2024-02-03T05:57:58.455Z,21.28
2024-02-03T06:00:43.439Z,21.07
2024-02-03T06:03:29.030Z,21.01
2024-02-03T06:09:03.628Z,21.34
2024-02-03T06:11:48.676Z,21.80
2024-02-03T06:14:33.790Z,25.30
2024-02-03T06:17:18.839Z,23.51
2024-02-03T06:20:04.383Z,23.20
2024-02-03T06:22:49.581Z,23.09
2024-02-03T06:25:34.585Z,24.11
2024-02-03T06:28:20.019Z,23.26
2024-02-03T06:31:05.213Z,23.41
2024-02-03T06:33:50.886Z,23.93
2024-02-03T06:36:36.489Z,22.70
2024-02-03T06:39:21.461Z,22.95
2024-02-03T06:42:06.441Z,24.47
2024-02-03T06:44:53.245Z,24.40
2024-02-03T06:47:38.827Z,22.39
2024-02-03T06:50:23.917Z,21.80
2024-02-03T06:53:08.967Z,22.07
2024-02-03T06:55:53.838Z,22.15
2024-02-03T06:58:38.987Z,20.25
2024-02-03T07:01:24.087Z,21.49
2024-02-03T07:04:09.388Z,21.72
2024-02-03T07:06:54.665Z,23.17
2024-02-03T07:09:39.774Z,23.24
2024-02-03T07:12:24.892Z,23.62
2024-02-03T07:15:09.919Z,23.79
2024-02-03T07:17:55.253Z,22.93
2024-02-03T07:20:40.260Z,23.13
2024-02-03T07:23:25.387Z,23.07
2024-02-03T07:26:10.498Z,23.85
2024-02-03T07:28:55.714Z,24.87
2024-02-03T07:31:40.986Z,24.11
2024-02-03T07:34:26.232Z,24.34
2024-02-03T07:37:11.445Z,26.07
2024-02-03T07:39:56.607Z,26.25
2024-02-03T07:42:41.815Z,25.66
2024-02-03T07:45:27.706Z,24.89
2024-02-03T07:48:12.656Z,26.04
2024-02-03T07:50:57.829Z,24.64
2024-02-03T07:53:43.047Z,23.99
2024-02-03T07:56:28.094Z,23.38
2024-02-03T07:59:13.197Z,24.27
2024-02-03T08:01:58.392Z,24.75
2024-02-03T08:04:43.599Z,25.50
2024-02-03T08:07:28.714Z,25.48
2024-02-03T08:10:13.953Z,24.64
2024-02-03T08:12:59.129Z,26.21
2024-02-03T08:15:44.603Z,24.68
2024-02-03T08:18:29.408Z,23.32
2024-02-03T08:21:14.654Z,23.20
2024-02-03T08:24:00.866Z,23.49
2024-02-03T08:26:46.016Z,23.92
2024-02-03T08:29:33.510Z,23.64
2024-02-03T08:32:18.493Z,23.91
2024-02-03T08:37:51.507Z,24.40
2024-02-03T08:40:36.684Z,24.37
2024-02-03T08:43:21.889Z,23.92
2024-02-03T08:46:07.103Z,24.43
2024-02-03T08:48:52.462Z,24.74
2024-02-03T08:51:39.477Z,25.70
2024-02-03T08:54:25.696Z,28.07
2024-02-03T08:57:10.909Z,28.72
2024-02-03T08:59:56.305Z,28.89
2024-02-03T09:02:41.600Z,29.43
2024-02-03T09:05:27.156Z,29.65
2024-02-03T09:08:12.465Z,36.42
2024-02-03T09:10:57.703Z,30.13
2024-02-03T09:13:42.938Z,28.90
2024-02-03T09:16:28.213Z,29.83
2024-02-03T09:19:13.207Z,31.70
2024-02-03T09:21:58.349Z,44.31
2024-02-03T09:24:43.468Z,29.47
2024-02-03T09:27:28.547Z,30.43
2024-02-03T09:30:13.773Z,29.55
2024-02-03T09:32:59.865Z,30.40
2024-02-03T09:35:44.930Z,36.43
2024-02-03T09:38:30.216Z,33.17
2024-02-03T09:41:15.251Z,30.09
2024-02-03T09:44:00.481Z,29.81
2024-02-03T09:46:45.604Z,28.80
2024-02-03T09:49:30.936Z,28.92
2024-02-03T09:52:15.990Z,30.78
2024-02-03T09:55:01.075Z,29.06
2024-02-03T09:57:46.384Z,29.60
2024-02-03T10:00:31.480Z,31.94
2024-02-03T10:03:17.810Z,27.83
2024-02-03T10:06:02.913Z,26.94
2024-02-03T10:08:48.303Z,25.61
2024-02-03T10:11:33.462Z,24.42
2024-02-03T10:14:18.548Z,25.33
2024-02-03T10:17:03.809Z,24.11
2024-02-03T10:19:49.124Z,23.84
2024-02-03T10:22:34.004Z,25.01
2024-02-03T10:25:22.129Z,27.97
2024-02-03T10:28:07.197Z,28.62
2024-02-03T10:30:52.268Z,31.16
2024-02-03T10:33:37.441Z,24.85
2024-02-03T10:36:22.655Z,27.64
2024-02-03T10:39:07.711Z,33.89
2024-02-03T10:41:52.737Z,27.36
2024-02-03T10:44:38.280Z,25.62
2024-02-03T10:53:40.514Z,21.01
2024-02-03T11:24:58.643Z,23.36
2024-02-03T11:27:49.763Z,22.16
2024-02-03T11:30:34.877Z,21.81
2024-02-03T11:33:20.373Z,22.09
2024-02-03T11:45:23.769Z,27.42
2024-02-03T11:48:09.077Z,25.62
2024-02-03T11:50:54.399Z,25.85
2024-02-03T11:53:39.705Z,25.45
2024-02-03T11:56:33.944Z,25.43
2024-02-03T11:59:20.995Z,26.25
2024-02-03T12:02:06.218Z,26.02
2024-02-03T12:04:56.021Z,26.36
2024-02-03T12:07:42.970Z,28.42
2024-02-03T12:10:31.812Z,26.57
2024-02-03T12:13:17.281Z,27.94
2024-02-03T12:16:03.230Z,25.73
2024-02-03T12:18:48.187Z,25.12
2024-02-03T12:21:38.764Z,24.37
2024-02-03T12:24:23.922Z,23.26
2024-02-03T12:27:08.806Z,24.53
2024-02-03T12:29:54.339Z,23.07
2024-02-03T12:32:39.360Z,19.54
2024-02-03T12:35:24.520Z,19.30
2024-02-03T12:38:10.898Z,22.10
2024-02-03T12:40:58.535Z,19.16
2024-02-03T12:43:45.640Z,22.22
2024-02-03T12:46:32.035Z,23.23
2024-02-03T12:49:17.394Z,23.17
2024-02-03T12:52:05.255Z,22.63
2024-02-03T12:57:59.147Z,24.04
2024-02-03T13:01:24.267Z,23.16
2024-02-03T13:04:11.630Z,20.87
2024-02-03T13:06:59.617Z,20.98
2024-02-03T13:09:45.278Z,19.57
2024-02-03T13:15:47.228Z,21.37
2024-02-03T13:18:45.681Z,20.52
2024-02-03T13:21:31.813Z,21.01
2024-02-03T13:24:22.714Z,19.43
2024-02-03T13:27:25.596Z,19.20
2024-02-03T13:30:12.535Z,18.63
2024-02-03T13:33:10.815Z,18.50
2024-02-03T13:36:05.796Z,17.53
2024-02-03T13:38:56.576Z,17.71
2024-02-03T13:41:41.950Z,17.25
2024-02-03T13:44:26.859Z,17.61
2024-02-03T13:47:12.516Z,15.65
2024-02-03T13:49:59.950Z,15.14
2024-02-03T13:55:49.690Z,14.30
2024-02-03T13:58:34.801Z,14.22
2024-02-03T14:01:21.491Z,14.11
2024-02-03T14:04:07.094Z,13.34
2024-02-03T14:06:51.977Z,13.53
2024-02-03T14:09:36.968Z,13.55
2024-02-03T14:12:21.870Z,13.88
2024-02-03T14:15:07.045Z,13.15
2024-02-03T14:17:52.427Z,12.89
2024-02-03T14:20:37.499Z,12.53
2024-02-03T14:23:22.887Z,12.72
2024-02-03T14:26:07.977Z,13.58
2024-02-03T14:28:52.926Z,13.10
2024-02-03T14:31:37.956Z,13.00
2024-02-03T14:34:23.493Z,12.55
2024-02-03T14:37:08.708Z,14.11
2024-02-03T14:40:05.778Z,12.66
2024-02-03T14:42:51.047Z,14.23
2024-02-03T14:45:36.496Z,12.61
2024-02-03T14:48:21.553Z,12.21
2024-02-03T14:51:06.564Z,11.92
2024-02-03T14:53:51.779Z,12.35
2024-02-03T14:56:36.980Z,13.62
2024-02-03T14:59:26.161Z,15.79
2024-02-03T15:02:11.136Z,14.32
2024-02-03T15:04:56.048Z,13.19
2024-02-03T15:07:41.175Z,14.53
2024-02-03T15:10:26.569Z,12.13
2024-02-03T15:13:12.020Z,11.69
2024-02-03T15:15:57.145Z,11.10
2024-02-03T15:18:42.230Z,10.89
2024-02-03T15:21:27.645Z,10.43
2024-02-03T15:24:12.635Z,9.98
2024-02-03T15:26:57.675Z,9.49
2024-02-03T15:29:42.856Z,10.15
2024-02-03T15:32:27.859Z,9.61
2024-02-03T15:35:19.585Z,8.26
2024-02-03T15:41:07.832Z,9.73
2024-02-03T15:47:06.807Z,15.52
2024-02-03T15:52:56.759Z,9.23
2024-02-03T16:05:04.384Z,10.05
2024-02-03T16:10:59.468Z,9.67
2024-02-03T16:13:49.318Z,9.39
2024-02-03T16:16:46.106Z,9.21
2024-02-03T16:19:31.203Z,10.71
2024-02-03T16:22:16.575Z,9.96
2024-02-03T16:25:02.235Z,10.19
2024-02-03T16:31:01.157Z,11.15
2024-02-03T16:33:46.397Z,13.69
2024-02-03T16:37:06.220Z,11.43
2024-02-03T16:39:49.766Z,11.80
2024-02-03T16:42:53.555Z,11.83
2024-02-03T16:45:38.855Z,11.46
2024-02-03T16:48:25.768Z,11.04
2024-02-03T16:51:10.897Z,10.89
2024-02-03T16:53:58.647Z,14.03
2024-02-03T16:56:43.501Z,10.28
2024-02-03T16:59:28.839Z,10.25
2024-02-03T17:02:13.952Z,11.26
2024-02-03T17:04:59.538Z,11.40
2024-02-03T17:07:44.852Z,12.22
2024-02-03T17:10:29.727Z,11.31
2024-02-03T17:13:14.921Z,11.95
2024-02-03T17:16:00.094Z,11.74
2024-02-03T17:18:45.463Z,12.55
2024-02-03T17:21:44.424Z,15.35
2024-02-03T17:24:29.367Z,14.56
2024-02-03T17:27:14.488Z,13.79
2024-02-03T17:29:59.658Z,13.70
2024-02-03T17:32:45.076Z,13.16
2024-02-03T17:35:37.583Z,13.54
2024-02-03T17:38:25.439Z,13.40
2024-02-03T17:41:10.466Z,14.15
2024-02-03T17:43:58.178Z,15.67
2024-02-03T17:46:43.109Z,19.75
2024-02-03T17:49:28.396Z,21.41
2024-02-03T17:52:13.780Z,19.43
2024-02-03T17:54:58.852Z,28.02
2024-02-03T17:57:43.936Z,24.17
2024-02-03T18:00:28.844Z,23.24
2024-02-03T18:03:14.345Z,22.26
2024-02-03T18:11:49.244Z,20.78
2024-02-03T18:14:44.614Z,19.53
2024-02-03T18:17:30.740Z,20.18
2024-02-03T18:26:37.515Z,20.15
2024-02-03T18:29:29.932Z,17.41
2024-02-03T18:32:15.708Z,16.11
2024-02-03T18:47:23.365Z,15.69
2024-02-03T18:50:10.944Z,15.42
2024-02-03T18:52:56.380Z,15.39
2024-02-03T18:55:41.501Z,19.37
2024-02-03T19:01:35.719Z,18.13
2024-02-03T19:04:21.048Z,17.75
2024-02-03T19:07:06.830Z,17.16
2024-02-03T19:13:01.951Z,17.14
2024-02-03T19:15:50.112Z,16.96
2024-02-03T19:18:38.297Z,16.46
2024-02-03T19:30:23.770Z,14.31
2024-02-03T19:33:09.437Z,13.71
2024-02-03T19:45:10.565Z,15.32
2024-02-03T19:48:17.958Z,15.34
2024-02-03T19:54:04.180Z,14.82
2024-02-03T20:02:57.482Z,15.39
2024-02-03T20:15:08.156Z,16.63
2024-02-03T20:18:30.253Z,18.25
2024-02-03T20:21:13.935Z,18.71
2024-02-03T20:23:59.307Z,18.36
2024-02-03T20:26:48.085Z,18.45
2024-02-03T20:29:34.557Z,19.71
2024-02-03T20:32:19.879Z,20.56
2024-02-03T20:35:16.610Z,19.80
2024-02-03T20:38:12.290Z,20.82
2024-02-03T20:40:57.818Z,20.98
2024-02-03T20:46:46.250Z,22.21
2024-02-03T20:49:33.388Z,28.45
2024-02-03T20:52:19.177Z,31.76
2024-02-03T20:55:06.903Z,27.68
2024-02-03T20:57:53.444Z,31.57
2024-02-03T21:07:08.760Z,28.25
2024-02-03T21:09:59.854Z,26.74
2024-02-03T21:12:59.975Z,26.85
2024-02-03T21:15:57.732Z,26.00
2024-02-03T21:18:56.619Z,23.27
2024-02-03T21:21:42.963Z,24.36
2024-02-03T21:24:35.853Z,25.28
2024-02-03T21:30:20.107Z,28.69
2024-02-03T21:36:20.744Z,22.42
2024-02-03T21:39:06.252Z,23.27
2024-02-03T21:41:51.383Z,27.74
2024-02-03T21:44:43.007Z,25.29
2024-02-03T21:59:52.233Z,23.42
2024-02-03T22:08:47.963Z,22.39
2024-02-03T22:11:48.988Z,24.56
2024-02-03T22:29:59.440Z,21.17
2024-02-03T22:32:49.080Z,22.64
2024-02-03T22:38:33.436Z,23.85
2024-02-03T22:41:22.786Z,23.32
2024-02-03T22:44:10.817Z,23.07
2024-02-03T22:46:59.173Z,23.32
2024-02-03T22:49:44.514Z,25.37
2024-02-03T22:52:39.793Z,25.48
2024-02-03T22:55:55.131Z,25.99
2024-02-03T22:58:38.421Z,26.07
2024-02-03T23:01:24.119Z,25.07
2024-02-03T23:04:09.335Z,24.66
2024-02-03T23:06:54.687Z,25.88
2024-02-03T23:09:40.405Z,25.36
2024-02-03T23:12:29.712Z,25.72
2024-02-03T23:15:16.490Z,25.59
2024-02-03T23:18:01.932Z,26.03
2024-02-03T23:20:47.465Z,25.04
2024-02-03T23:23:32.472Z,25.25
2024-02-03T23:26:17.428Z,25.04
2024-02-03T23:29:02.362Z,25.24
2024-02-03T23:31:47.467Z,26.05
2024-02-03T23:34:35.662Z,26.07
2024-02-03T23:37:24.150Z,25.40
2024-02-03T23:40:12.030Z,24.73
2024-02-03T23:43:00.559Z,24.14
2024-02-03T23:45:45.623Z,23.60
2024-02-03T23:48:30.609Z,25.58
2024-02-03T23:51:15.990Z,25.70
2024-02-03T23:54:01.193Z,25.31
2024-02-03T23:56:46.381Z,25.26
2024-02-03T23:59:31.344Z,25.06
